Time;durP1;ratioP1;P1;durP2;ratioP2;P2;SDS_P1;SDS_P2;PMS_P1;PMS_P2;Temp;Humidity;BMP_temperature;BMP_pressure;BME280_temperature;BME280_humidity;BME280_pressure;Samples;Min_cycle;Max_cycle;Signal;HPM_P1;HPM_P2
2021/10/15 00:01:39;;;;;;;8.88;4.55;;;13.50;59.30;;;;;;6204206;28;20120;-75
2021/10/15 00:04:40;;;;;;;12.57;4.32;;;13.60;59.40;;;;;;6220766;28;20065;-75
2021/10/15 00:07:41;;;;;;;9.90;4.00;;;13.50;59.30;;;;;;6221832;28;20038;-75
2021/10/15 00:10:42;;;;;;;8.27;4.45;;;13.50;59.40;;;;;;6223546;28;20037;-75
2021/10/15 00:13:43;;;;;;;8.27;4.13;;;13.50;59.50;;;;;;6241928;28;20041;-76
2021/10/15 00:16:44;;;;;;;7.30;4.22;;;13.40;59.60;;;;;;6246103;28;20478;-75
2021/10/15 00:19:45;;;;;;;19.55;4.93;;;13.30;59.70;;;;;;6239132;28;20324;-75
2021/10/15 00:22:46;;;;;;;9.30;3.92;;;13.30;59.80;;;;;;6240980;28;20526;-75
2021/10/15 00:25:47;;;;;;;9.40;4.13;;;13.20;59.90;;;;;;6220415;28;20038;-75
2021/10/15 00:28:48;;;;;;;10.00;4.50;;;13.20;60.10;;;;;;6222285;28;20101;-75
2021/10/15 00:31:48;;;;;;;9.48;5.20;;;13.20;60.30;;;;;;6222481;28;20050;-75
2021/10/15 00:34:49;;;;;;;10.95;4.75;;;13.10;60.40;;;;;;6221292;28;20041;-75
2021/10/15 00:37:50;;;;;;;12.15;4.50;;;13.10;60.70;;;;;;6220834;28;20037;-75
2021/10/15 00:40:51;;;;;;;11.45;5.47;;;13.10;61.70;;;;;;6222398;28;20026;-75
2021/10/15 00:44:05;;;;;;;7.53;4.40;;;13.00;61.00;;;;;;6224204;28;20065;-75
2021/10/15 00:47:06;;;;;;;10.07;4.78;;;13.00;61.20;;;;;;6220072;28;20026;-75
2021/10/15 00:50:08;;;;;;;9.52;4.55;;;13.00;61.20;;;;;;6221028;28;20100;-74
2021/10/15 00:53:09;;;;;;;7.63;4.32;;;12.90;61.30;;;;;;6220383;28;20095;-74
2021/10/15 00:56:10;;;;;;;10.15;4.97;;;12.90;61.20;;;;;;6218766;28;20316;-74
2021/10/15 00:59:12;;;;;;;11.75;4.90;;;12.90;61.30;;;;;;6221231;28;20473;-75
2021/10/15 01:02:13;;;;;;;7.63;3.90;;;12.90;61.30;;;;;;6237206;28;20034;-75
2021/10/15 01:05:14;;;;;;;9.70;3.97;;;12.90;61.50;;;;;;6220942;28;20050;-74
2021/10/15 01:08:15;;;;;;;13.10;4.55;;;12.90;61.50;;;;;;6236813;28;20487;-74
2021/10/15 01:11:17;;;;;;;11.85;4.32;;;12.90;61.70;;;;;;6220704;28;20356;-75
2021/10/15 01:14:18;;;;;;;11.32;4.80;;;12.80;61.90;;;;;;6215325;28;20053;-75
2021/10/15 01:17:19;;;;;;;8.32;3.90;;;12.80;62.00;;;;;;6236601;28;20145;-75
2021/10/15 01:20:20;;;;;;;9.00;4.43;;;12.80;62.00;;;;;;6219907;28;20030;-75
2021/10/15 01:23:21;;;;;;;12.15;3.97;;;12.80;62.00;;;;;;6221798;28;20050;-76
2021/10/15 01:26:23;;;;;;;9.77;4.57;;;12.80;62.00;;;;;;6237218;28;20030;-75
2021/10/15 01:29:25;;;;;;;8.27;4.57;;;12.80;62.20;;;;;;6213261;28;20367;-76
2021/10/15 01:32:26;;;;;;;7.40;4.10;;;12.70;62.20;;;;;;6227425;28;20471;-75
2021/10/15 01:35:27;;;;;;;8.82;4.93;;;12.70;62.20;;;;;;6220753;28;20077;-75
2021/10/15 01:38:28;;;;;;;11.15;4.80;;;12.70;62.30;;;;;;6223905;28;20045;-76
2021/10/15 01:41:29;;;;;;;10.38;4.85;;;12.60;62.20;;;;;;6227678;28;20038;-75
2021/10/15 01:44:30;;;;;;;9.68;4.57;;;12.60;62.10;;;;;;6226540;28;20137;-75
2021/10/15 01:47:31;;;;;;;11.27;4.72;;;12.60;62.10;;;;;;6241320;28;20038;-74
2021/10/15 01:50:32;;;;;;;7.82;4.45;;;12.60;62.20;;;;;;6225128;28;20053;-75
2021/10/15 01:53:33;;;;;;;9.02;4.72;;;12.50;62.10;;;;;;6225867;28;20046;-74
2021/10/15 01:56:36;;;;;;;7.13;4.20;;;12.50;62.10;;;;;;6227151;28;20048;-75
2021/10/15 01:59:38;;;;;;;8.43;4.70;;;12.50;62.10;;;;;;6228229;28;20446;-74
2021/10/15 02:02:40;;;;;;;8.82;4.68;;;12.40;62.00;;;;;;6211184;28;20042;-74
2021/10/15 02:05:41;;;;;;;7.28;3.67;;;12.40;62.10;;;;;;6231064;28;20129;-73
2021/10/15 02:08:42;;;;;;;7.97;4.35;;;12.40;62.30;;;;;;6227540;28;20033;-75
2021/10/15 02:11:43;;;;;;;7.60;4.57;;;12.30;62.50;;;;;;6229666;28;20068;-75
2021/10/15 02:14:44;;;;;;;12.13;5.47;;;12.30;62.70;;;;;;6225794;28;20512;-75
2021/10/15 02:17:45;;;;;;;8.35;4.60;;;12.30;62.80;;;;;;6224124;28;20490;-75
2021/10/15 02:20:46;;;;;;;10.48;4.13;;;12.20;62.80;;;;;;6224603;28;20042;-75
2021/10/15 02:23:47;;;;;;;10.23;4.47;;;12.20;62.90;;;;;;6224746;28;20072;-75
2021/10/15 02:26:48;;;;;;;8.68;4.38;;;12.20;63.00;;;;;;6225424;28;20037;-75
2021/10/15 02:29:49;;;;;;;7.65;3.95;;;12.20;63.10;;;;;;6223830;28;20079;-75
2021/10/15 02:32:50;;;;;;;11.80;4.47;;;12.10;63.10;;;;;;6224175;28;20454;-75
2021/10/15 02:35:51;;;;;;;8.23;4.18;;;12.10;63.20;;;;;;6225321;28;20038;-75
2021/10/15 02:38:52;;;;;;;8.15;4.53;;;12.10;63.40;;;;;;6224911;28;20418;-76
2021/10/15 02:41:54;;;;;;;8.60;4.30;;;12.00;63.50;;;;;;6245733;28;20045;-75
2021/10/15 02:44:55;;;;;;;9.27;4.28;;;11.90;63.60;;;;;;6224404;28;20039;-75
2021/10/15 02:47:55;;;;;;;6.88;3.70;;;11.90;63.90;;;;;;6218939;28;20060;-75
2021/10/15 02:50:56;;;;;;;7.53;4.18;;;11.90;63.90;;;;;;6223803;28;20034;-75
2021/10/15 02:53:57;;;;;;;7.72;4.43;;;11.90;64.10;;;;;;6224607;28;20386;-75
2021/10/15 02:56:58;;;;;;;10.05;4.75;;;11.80;64.20;;;;;;6223728;28;20471;-75
2021/10/15 03:00:00;;;;;;;14.05;5.03;;;11.80;64.30;;;;;;6223315;28;20176;-75
2021/10/15 03:03:00;;;;;;;8.05;3.80;;;11.80;64.30;;;;;;6222774;28;20057;-75
2021/10/15 03:06:02;;;;;;;8.43;4.88;;;11.70;64.50;;;;;;6207234;28;20038;-75
2021/10/15 03:09:04;;;;;;;10.73;4.45;;;11.70;64.80;;;;;;6220805;28;20033;-75
2021/10/15 03:12:06;;;;;;;7.80;3.85;;;11.70;64.60;;;;;;6229045;28;20062;-75
2021/10/15 03:15:08;;;;;;;8.35;4.25;;;11.60;64.70;;;;;;6224408;28;20034;-75
2021/10/15 03:18:09;;;;;;;9.73;4.07;;;11.70;64.80;;;;;;6236374;28;20052;-75
2021/10/15 03:21:09;;;;;;;9.88;4.53;;;11.70;64.90;;;;;;6210750;28;20034;-75
2021/10/15 03:24:11;;;;;;;7.85;4.28;;;11.60;64.80;;;;;;6222901;28;20073;-76
2021/10/15 03:27:11;;;;;;;9.45;4.25;;;11.70;64.90;;;;;;6223582;28;20040;-75
2021/10/15 03:30:12;;;;;;;8.27;4.10;;;11.60;64.80;;;;;;6225252;28;20442;-75
2021/10/15 03:33:15;;;;;;;6.88;3.97;;;11.70;65.80;;;;;;6223595;28;20065;-73
2021/10/15 03:36:15;;;;;;;9.25;4.50;;;11.70;65.00;;;;;;6222482;28;20088;-72
2021/10/15 03:39:16;;;;;;;9.40;3.70;;;11.60;65.00;;;;;;6222741;28;20045;-72
2021/10/15 03:42:18;;;;;;;12.73;4.18;;;11.70;65.10;;;;;;6228010;28;20096;-74
2021/10/15 03:45:19;;;;;;;9.57;4.82;;;11.70;65.00;;;;;;6220606;28;20038;-74
2021/10/15 03:48:20;;;;;;;10.45;4.25;;;11.70;65.00;;;;;;6221410;28;20061;-73
2021/10/15 03:51:21;;;;;;;7.82;4.22;;;11.70;64.90;;;;;;6223556;28;20058;-73
2021/10/15 03:54:22;;;;;;;9.27;4.40;;;11.70;64.90;;;;;;6222206;28;20133;-74
2021/10/15 03:57:22;;;;;;;7.40;3.67;;;11.80;64.80;;;;;;6221657;28;20045;-74
2021/10/15 04:00:23;;;;;;;8.90;4.93;;;11.80;64.70;;;;;;6222708;28;20037;-73
2021/10/15 04:03:24;;;;;;;5.85;3.75;;;11.80;64.80;;;;;;6221733;28;20105;-73
2021/10/15 04:06:25;;;;;;;8.02;3.97;;;11.80;64.70;;;;;;6223304;28;20030;-73
2021/10/15 04:09:26;;;;;;;8.38;4.40;;;11.80;64.80;;;;;;6221928;28;20118;-74
2021/10/15 04:12:27;;;;;;;10.60;4.00;;;11.80;64.70;;;;;;6223057;28;20455;-73
2021/10/15 04:15:28;;;;;;;10.02;4.22;;;11.90;64.70;;;;;;6222669;28;20030;-74
2021/10/15 04:18:29;;;;;;;8.82;4.50;;;11.90;64.60;;;;;;6221396;28;20045;-73
2021/10/15 04:21:30;;;;;;;6.88;4.00;;;11.90;64.50;;;;;;6238164;28;20474;-73
2021/10/15 04:24:31;;;;;;;11.05;3.97;;;11.90;64.40;;;;;;6204099;28;20030;-73
2021/10/15 04:27:34;;;;;;;9.43;4.28;;;11.90;64.30;;;;;;6221177;28;20038;-73
2021/10/15 04:30:35;;;;;;;8.23;4.13;;;11.90;64.30;;;;;;6205481;28;20121;-73
2021/10/15 04:33:36;;;;;;;14.68;4.57;;;11.90;64.30;;;;;;6220734;28;20056;-73
2021/10/15 04:36:37;;;;;;;9.02;4.53;;;12.00;64.50;;;;;;6217925;28;20374;-73
2021/10/15 04:39:39;;;;;;;6.55;3.92;;;12.00;64.20;;;;;;6221910;28;20042;-73
2021/10/15 04:42:40;;;;;;;7.57;4.15;;;12.00;64.10;;;;;;6207033;28;20062;-74
2021/10/15 04:45:41;;;;;;;7.85;4.50;;;12.00;64.10;;;;;;6217769;28;20118;-74
2021/10/15 04:48:42;;;;;;;8.55;4.20;;;12.00;64.10;;;;;;6203924;28;20034;-74
2021/10/15 04:51:43;;;;;;;11.35;3.83;;;11.90;64.00;;;;;;6220882;28;20042;-74
2021/10/15 04:54:43;;;;;;;8.43;4.20;;;11.90;64.10;;;;;;6204404;28;20043;-74
2021/10/15 04:57:45;;;;;;;9.95;4.63;;;11.90;64.20;;;;;;6215399;28;20029;-74
2021/10/15 05:00:46;;;;;;;14.55;4.40;;;11.80;64.20;;;;;;6222076;28;20513;-75
2021/10/15 05:03:47;;;;;;;11.05;4.05;;;11.80;64.30;;;;;;6221898;28;20026;-73
2021/10/15 05:06:47;;;;;;;6.18;3.65;;;11.80;64.40;;;;;;6220959;28;20030;-75
2021/10/15 05:09:48;;;;;;;8.50;4.18;;;11.80;64.50;;;;;;6220657;28;20939;-74
2021/10/15 05:12:50;;;;;;;7.97;3.85;;;11.70;64.50;;;;;;6245138;28;20125;-75
2021/10/15 05:15:51;;;;;;;7.38;4.28;;;11.70;64.50;;;;;;6226212;28;20356;-74
2021/10/15 05:18:52;;;;;;;11.45;4.22;;;11.70;64.50;;;;;;6225970;28;20038;-75
2021/10/15 05:21:54;;;;;;;9.82;4.25;;;11.70;64.50;;;;;;6208812;28;20474;-73
2021/10/15 05:24:55;;;;;;;8.27;4.25;;;11.70;64.50;;;;;;6239913;28;20044;-74
2021/10/15 05:27:55;;;;;;;9.20;4.50;;;11.70;64.40;;;;;;6208651;28;20030;-73
2021/10/15 05:30:57;;;;;;;8.90;4.65;;;11.70;64.50;;;;;;6226509;28;20477;-75
2021/10/15 05:33:58;;;;;;;14.20;4.03;;;11.70;64.40;;;;;;6227397;28;20041;-75
2021/10/15 05:36:58;;;;;;;11.82;4.07;;;11.60;64.30;;;;;;6227572;28;20026;-74
2021/10/15 05:39:59;;;;;;;7.88;3.80;;;11.60;64.50;;;;;;6226461;28;20108;-76
2021/10/15 05:43:00;;;;;;;6.78;3.22;;;11.60;64.60;;;;;;6228791;28;20497;-74
2021/10/15 05:46:02;;;;;;;14.65;4.68;;;11.50;64.70;;;;;;6224914;28;20033;-76
2021/10/15 05:49:07;;;;;;;8.90;4.00;;;11.50;64.80;;;;;;6224088;28;20044;-75
2021/10/15 06:01:34;;;;;;;9.35;4.10;;;11.50;65.00;;;;;;6224569;28;20038;-73
2021/10/15 06:17:19;;;;;;;8.57;3.88;;;11.30;65.10;;;;;;6230280;28;20432;-72
2021/10/15 06:20:21;;;;;;;7.00;3.97;;;11.30;65.30;;;;;;6232281;28;20038;-73
2021/10/15 06:23:22;;;;;;;13.82;3.92;;;11.30;65.30;;;;;;6224894;28;20073;-74
2021/10/15 06:26:23;;;;;;;10.25;3.88;;;11.30;66.20;;;;;;6223676;28;20038;-75
2021/10/15 06:29:24;;;;;;;11.93;4.47;;;11.30;65.50;;;;;;6224400;28;20474;-73
2021/10/15 06:32:24;;;;;;;8.65;4.30;;;11.30;65.50;;;;;;6239535;28;20050;-78
2021/10/15 06:35:25;;;;;;;9.48;4.13;;;11.30;65.50;;;;;;6223204;28;20038;-72
2021/10/15 06:38:51;;;;;;;8.95;3.80;;;11.30;65.50;;;;;;6221430;28;20060;-72
2021/10/15 06:41:52;;;;;;;11.77;4.22;;;11.40;65.70;;;;;;6226421;28;20065;-71
2021/10/15 06:44:52;;;;;;;6.90;4.13;;;11.40;65.50;;;;;;6224383;28;20044;-73
2021/10/15 06:47:54;;;;;;;5.32;3.67;;;11.40;65.50;;;;;;6222080;28;20041;-72
2021/10/15 06:50:55;;;;;;;9.88;4.05;;;11.40;65.30;;;;;;6238687;28;20042;-72
2021/10/15 06:53:56;;;;;;;6.88;3.65;;;11.50;65.30;;;;;;6236990;28;20073;-72
2021/10/15 06:56:57;;;;;;;10.80;3.83;;;11.40;65.10;;;;;;6222148;28;20057;-75
2021/10/15 06:59:58;;;;;;;11.68;4.82;;;11.50;65.10;;;;;;6238980;28;20053;-72
2021/10/15 07:02:59;;;;;;;12.32;4.65;;;11.50;65.20;;;;;;6222278;28;20368;-73
2021/10/15 07:06:00;;;;;;;9.60;4.07;;;11.40;65.10;;;;;;6223539;28;20041;-73
2021/10/15 07:09:01;;;;;;;7.97;4.72;;;11.50;65.30;;;;;;6222380;28;20041;-73
2021/10/15 07:12:02;;;;;;;7.43;3.95;;;11.50;65.20;;;;;;6224651;28;20108;-73
2021/10/15 07:15:04;;;;;;;7.93;4.40;;;11.50;65.20;;;;;;6223774;28;20034;-72
2021/10/15 07:18:06;;;;;;;14.18;4.95;;;11.50;65.30;;;;;;6220940;28;20030;-71
2021/10/15 07:21:07;;;;;;;10.90;4.35;;;11.50;65.30;;;;;;6222363;28;20073;-72
2021/10/15 07:24:08;;;;;;;14.55;5.43;;;11.60;65.30;;;;;;6221011;28;20033;-72
2021/10/15 07:27:09;;;;;;;9.20;4.88;;;11.70;66.10;;;;;;6222165;28;20080;-72
2021/10/15 07:30:10;;;;;;;8.88;3.85;;;11.90;65.00;;;;;;6223388;28;20038;-72
2021/10/15 07:33:11;;;;;;;17.98;4.97;;;11.90;64.90;;;;;;6222777;28;20061;-72
2021/10/15 07:36:12;;;;;;;7.97;4.65;;;12.10;64.60;;;;;;6222078;28;20038;-71
2021/10/15 07:39:13;;;;;;;8.00;4.25;;;12.20;64.40;;;;;;6213373;28;20042;-72
2021/10/15 07:42:14;;;;;;;10.35;5.30;;;12.20;64.20;;;;;;6225961;28;20038;-73
2021/10/15 07:45:15;;;;;;;12.55;5.43;;;12.30;64.10;;;;;;6222745;28;20034;-74
2021/10/15 07:48:16;;;;;;;8.60;4.10;;;12.40;64.00;;;;;;6219781;28;20388;-76
2021/10/15 07:51:17;;;;;;;12.23;5.43;;;12.60;63.90;;;;;;6221166;28;20394;-73
2021/10/15 07:54:18;;;;;;;11.02;5.20;;;12.70;63.50;;;;;;6219936;28;20081;-73
2021/10/15 07:57:19;;;;;;;9.93;4.50;;;12.80;63.30;;;;;;6237179;28;20406;-76
2021/10/15 08:00:20;;;;;;;9.55;4.60;;;12.80;63.20;;;;;;6228130;28;20091;-73
2021/10/15 08:03:21;;;;;;;11.38;5.43;;;12.90;62.90;;;;;;6221092;28;20041;-72
2021/10/15 08:06:22;;;;;;;9.80;4.60;;;13.00;62.90;;;;;;6227315;28;20037;-72
2021/10/15 08:09:23;;;;;;;14.73;5.15;;;13.20;62.80;;;;;;6220958;28;20045;-72
2021/10/15 08:12:24;;;;;;;9.77;5.45;;;13.30;62.40;;;;;;6221541;28;20042;-72
2021/10/15 08:15:25;;;;;;;14.40;5.00;;;13.50;62.10;;;;;;6222370;28;20048;-73
2021/10/15 08:18:26;;;;;;;15.23;5.45;;;13.60;61.80;;;;;;6221725;28;20041;-74
2021/10/15 08:21:27;;;;;;;11.70;4.95;;;13.80;61.60;;;;;;6221458;28;20049;-72
2021/10/15 08:24:28;;;;;;;9.25;4.68;;;13.90;60.90;;;;;;6221917;28;20037;-72
2021/10/15 08:27:29;;;;;;;7.90;4.60;;;14.10;60.30;;;;;;6203714;28;20038;-72
2021/10/15 08:30:30;;;;;;;12.73;4.85;;;14.20;60.00;;;;;;6221191;28;20052;-79
2021/10/15 08:33:31;;;;;;;10.60;4.50;;;14.30;59.40;;;;;;6220280;28;20037;-72
2021/10/15 08:36:32;;;;;;;15.73;5.70;;;14.40;59.40;;;;;;6220535;28;20460;-72
2021/10/15 08:39:33;;;;;;;11.35;5.03;;;14.50;59.10;;;;;;6236762;28;20049;-72
2021/10/15 08:42:35;;;;;;;14.70;5.55;;;14.60;58.90;;;;;;6236668;28;20152;-73
2021/10/15 08:45:37;;;;;;;16.48;6.90;;;14.70;58.40;;;;;;6203779;28;20037;-74
2021/10/15 08:48:39;;;;;;;13.75;6.00;;;14.80;58.10;;;;;;6221510;28;20041;-72
2021/10/15 08:51:40;;;;;;;14.57;6.40;;;14.80;57.90;;;;;;6219913;28;20062;-73
2021/10/15 08:54:45;;;;;;;17.45;8.10;;;14.90;57.80;;;;;;6218508;28;20059;-73
2021/10/15 08:57:51;;;;;;;32.60;8.35;;;15.00;57.70;;;;;;6220582;28;20045;-74
2021/10/15 09:00:57;;;;;;;12.43;5.70;;;15.10;57.50;;;;;;6220531;28;20046;-74
2021/10/15 09:04:03;;;;;;;10.20;5.10;;;15.20;56.90;;;;;;6220487;28;20063;-73
2021/10/15 09:07:11;;;;;;;8.38;3.70;;;15.20;56.80;;;;;;6218600;28;20112;-73
2021/10/15 09:10:18;;;;;;;6.75;4.10;;;15.20;56.80;;;;;;6236344;28;20034;-74
2021/10/15 09:13:21;;;;;;;8.57;4.47;;;15.30;56.40;;;;;;6224298;28;20127;-73
2021/10/15 09:16:21;;;;;;;6.30;4.00;;;15.30;56.40;;;;;;6220976;28;20046;-74
2021/10/15 09:19:28;;;;;;;9.88;4.53;;;15.40;56.40;;;;;;6219506;28;20038;-74
2021/10/15 09:22:31;;;;;;;17.40;5.55;;;15.50;56.30;;;;;;6236623;28;20084;-74
2021/10/15 09:25:37;;;;;;;12.73;5.63;;;15.60;56.20;;;;;;6219958;28;20084;-72
2021/10/15 09:28:43;;;;;;;13.57;6.47;;;15.70;55.80;;;;;;6220870;28;20113;-73
2021/10/15 09:31:48;;;;;;;8.95;4.20;;;15.80;55.60;;;;;;6220439;28;20397;-74
2021/10/15 09:34:50;;;;;;;7.70;3.70;;;15.80;55.40;;;;;;6203787;28;20030;-73
2021/10/15 09:38:12;;;;;;;7.85;4.05;;;15.90;55.40;;;;;;6221115;28;20517;-73
2021/10/15 09:41:35;;;;;;;10.88;4.65;;;16.10;55.80;;;;;;6220943;28;20422;-73
2021/10/15 09:44:36;;;;;;;11.25;4.18;;;16.20;54.90;;;;;;6214705;28;20049;-74
2021/10/15 09:47:37;;;;;;;7.40;4.00;;;16.20;54.30;;;;;;6218945;28;20459;-73
2021/10/15 09:50:38;;;;;;;8.48;4.35;;;16.30;54.30;;;;;;6218978;28;20042;-73
2021/10/15 09:53:40;;;;;;;9.00;4.68;;;16.40;53.90;;;;;;6218712;28;20050;-73
2021/10/15 09:56:45;;;;;;;40.40;13.13;;;16.50;53.70;;;;;;6220274;28;20061;-73
2021/10/15 09:59:46;;;;;;;15.93;6.00;;;16.60;53.20;;;;;;6223805;28;20054;-74
2021/10/15 10:02:48;;;;;;;17.73;6.03;;;16.70;52.70;;;;;;6223600;28;20490;-72
2021/10/15 10:05:49;;;;;;;15.85;6.47;;;16.80;52.70;;;;;;6223653;28;20141;-73
2021/10/15 10:08:50;;;;;;;14.32;7.30;;;17.00;52.10;;;;;;6223113;28;20455;-72
2021/10/15 10:11:52;;;;;;;17.30;7.63;;;17.30;51.60;;;;;;6226663;28;20072;-72
2021/10/15 10:14:53;;;;;;;29.63;13.75;;;17.50;50.70;;;;;;6239775;28;20049;-73
2021/10/15 10:18:17;;;;;;;10.43;5.43;;;17.80;50.30;;;;;;6223765;28;20034;-73
2021/10/15 10:21:26;;;;;;;8.02;4.55;;;18.10;49.70;;;;;;6222239;28;20048;-72
2021/10/15 10:24:31;;;;;;;8.05;3.28;;;18.40;49.00;;;;;;6221475;28;20363;-74
2021/10/15 10:27:33;;;;;;;18.65;7.68;;;18.60;48.00;;;;;;6229542;28;20111;-73
2021/10/15 10:30:39;;;;;;;13.55;4.82;;;18.80;46.60;;;;;;6225550;28;20172;-73
2021/10/15 10:33:58;;;;;;;23.20;9.07;;;18.90;46.10;;;;;;6218421;28;20033;-71
2021/10/15 10:37:10;;;;;;;8.57;3.78;;;18.90;45.90;;;;;;6230821;28;20117;-71
2021/10/15 10:40:12;;;;;;;14.60;4.03;;;19.00;45.80;;;;;;6217595;28;20045;-71
2021/10/15 10:43:13;;;;;;;25.17;8.25;;;19.20;45.90;;;;;;6228888;28;20427;-71
2021/10/15 10:46:19;;;;;;;15.45;6.90;;;19.40;45.50;;;;;;6222527;28;20083;-70
2021/10/15 10:49:21;;;;;;;11.70;3.95;;;19.70;45.10;;;;;;6236072;28;20045;-72
2021/10/15 10:52:22;;;;;;;6.03;3.10;;;19.90;44.90;;;;;;6221971;28;20045;-72
2021/10/15 10:55:35;;;;;;;7.47;3.10;;;20.10;44.00;;;;;;6222281;28;20130;-73
2021/10/15 10:58:37;;;;;;;5.10;2.65;;;20.20;43.60;;;;;;6221794;28;20042;-72
2021/10/15 11:01:45;;;;;;;11.18;4.30;;;20.40;43.30;;;;;;6219685;28;20049;-72
2021/10/15 11:04:55;;;;;;;11.10;5.10;;;20.50;43.20;;;;;;6221017;28;20045;-71
2021/10/15 11:08:23;;;;;;;7.03;3.42;;;20.80;43.10;;;;;;6221050;28;20420;-73
2021/10/15 11:11:26;;;;;;;8.52;3.33;;;21.10;42.20;;;;;;6220716;28;20064;-71
2021/10/15 11:14:56;;;;;;;10.68;3.15;;;21.40;42.00;;;;;;6221502;28;20037;-71
2021/10/15 11:17:58;;;;;;;8.48;5.30;;;21.70;41.30;;;;;;6218310;28;20096;-71
2021/10/15 11:21:09;;;;;;;11.48;3.17;;;22.10;40.50;;;;;;6220117;28;20045;-70
2021/10/15 11:24:15;;;;;;;10.05;3.50;;;22.20;40.40;;;;;;6219697;28;20068;-74
2021/10/15 11:27:17;;;;;;;8.75;2.85;;;22.30;40.10;;;;;;6221282;28;20061;-72
2021/10/15 11:30:18;;;;;;;14.55;4.43;;;22.30;39.90;;;;;;6236603;28;20045;-72
2021/10/15 11:33:21;;;;;;;5.25;3.25;;;22.30;39.70;;;;;;6215714;28;20467;-72
2021/10/15 11:36:22;;;;;;;7.03;3.08;;;22.50;39.40;;;;;;6217308;28;20029;-72
2021/10/15 11:39:23;;;;;;;7.30;3.33;;;22.80;39.50;;;;;;6219863;28;20065;-72
2021/10/15 11:42:24;;;;;;;4.95;3.05;;;23.10;38.80;;;;;;6224617;28;20129;-71
2021/10/15 11:45:33;;;;;;;5.93;3.13;;;23.50;38.30;;;;;;6235859;28;20034;-71
2021/10/15 11:48:45;;;;;;;5.00;2.92;;;23.90;37.70;;;;;;6223213;28;20046;-72
2021/10/15 11:51:46;;;;;;;6.50;3.03;;;24.30;37.00;;;;;;6204020;28;20052;-72
2021/10/15 11:54:47;;;;;;;4.97;2.97;;;24.80;36.20;;;;;;6203973;28;20062;-72
2021/10/15 11:57:50;;;;;;;8.23;3.63;;;25.10;35.40;;;;;;6203664;28;20034;-72
2021/10/15 12:01:22;;;;;;;5.47;3.03;;;25.30;35.20;;;;;;6220594;28;20038;-71
2021/10/15 12:04:22;;;;;;;7.78;2.80;;;25.50;35.00;;;;;;6219446;28;20112;-71
2021/10/15 12:07:23;;;;;;;4.30;2.67;;;25.60;34.50;;;;;;6204241;28;20041;-71
2021/10/15 12:10:24;;;;;;;13.43;2.70;;;25.70;34.00;;;;;;6221043;28;20034;-71
2021/10/15 12:13:25;;;;;;;5.63;2.75;;;25.90;33.70;;;;;;6220877;28;20152;-72
2021/10/15 12:16:32;;;;;;;9.35;3.17;;;26.30;33.20;;;;;;6221605;28;20038;-72
2021/10/15 12:19:34;;;;;;;5.97;2.97;;;26.30;33.00;;;;;;6208670;28;20427;-71
2021/10/15 12:22:35;;;;;;;7.60;2.92;;;26.20;32.90;;;;;;6220166;28;20042;-72
2021/10/15 12:25:36;;;;;;;6.65;2.95;;;26.10;33.20;;;;;;6222035;28;20074;-72
2021/10/15 12:28:36;;;;;;;4.40;2.45;;;25.90;33.10;;;;;;6220892;28;20192;-71
2021/10/15 12:31:37;;;;;;;5.30;2.80;;;26.00;33.00;;;;;;6221264;28;20088;-73
2021/10/15 12:34:54;;;;;;;4.63;2.50;;;26.00;33.00;;;;;;6218132;28;20479;-72
2021/10/15 12:37:57;;;;;;;8.82;3.10;;;25.70;33.20;;;;;;6217419;28;20053;-72
2021/10/15 12:40:58;;;;;;;9.27;2.47;;;25.40;33.40;;;;;;6218183;28;20034;-72
2021/10/15 12:44:20;;;;;;;9.23;2.67;;;25.10;33.80;;;;;;6221998;28;20092;-72
2021/10/15 12:47:21;;;;;;;3.95;2.50;;;24.80;34.10;;;;;;6213661;28;20038;-72
2021/10/15 12:50:22;;;;;;;12.20;3.05;;;24.50;34.50;;;;;;6215000;28;20044;-72
2021/10/15 12:53:24;;;;;;;17.88;5.18;;;24.30;34.80;;;;;;6224441;28;20037;-72
2021/10/15 12:56:29;;;;;;;7.03;2.80;;;24.00;35.10;;;;;;6218928;28;20073;-72
2021/10/15 12:59:30;;;;;;;6.40;2.90;;;23.70;35.30;;;;;;6218724;28;20038;-72
2021/10/15 13:02:31;;;;;;;10.02;2.75;;;23.50;35.50;;;;;;6218421;28;20040;-73
2021/10/15 13:05:34;;;;;;;4.57;2.42;;;23.30;35.80;;;;;;6217984;28;20038;-73
2021/10/15 13:08:35;;;;;;;7.68;3.17;;;23.10;36.10;;;;;;6214775;28;20053;-71
2021/10/15 13:11:35;;;;;;;9.80;2.70;;;22.90;36.50;;;;;;6203615;28;25321;-74
2021/10/15 13:14:37;;;;;;;6.25;2.60;;;22.80;36.80;;;;;;6221057;28;20076;-72
2021/10/15 13:17:38;;;;;;;6.72;2.47;;;22.60;37.00;;;;;;6219759;28;20033;-72
2021/10/15 13:20:38;;;;;;;5.63;2.53;;;22.50;37.30;;;;;;6217959;28;20153;-72
2021/10/15 13:23:39;;;;;;;5.97;2.92;;;22.40;37.60;;;;;;6219650;28;20034;-74
2021/10/15 13:26:42;;;;;;;9.20;2.60;;;22.30;37.90;;;;;;6200456;28;20045;-73
2021/10/15 13:29:42;;;;;;;3.88;2.75;;;22.20;38.20;;;;;;6216961;28;20482;-72
2021/10/15 13:32:44;;;;;;;7.25;2.65;;;22.10;38.40;;;;;;6216335;28;20052;-72
2021/10/15 13:35:49;;;;;;;8.27;2.67;;;22.00;38.60;;;;;;6220571;28;20042;-74
2021/10/15 13:38:50;;;;;;;3.78;2.40;;;21.90;38.90;;;;;;6222030;28;20065;-72
2021/10/15 13:51:27;;;;;;;8.70;3.70;;;21.70;38.90;;;;;;6221177;28;20367;-74
2021/10/15 13:54:28;;;;;;;7.43;3.05;;;21.60;39.00;;;;;;6221441;28;20129;-73
2021/10/15 13:57:28;;;;;;;6.05;3.00;;;21.60;39.20;;;;;;6222643;28;20113;-73
2021/10/15 14:00:36;;;;;;;6.97;3.35;;;21.60;39.30;;;;;;6220423;28;20367;-72
2021/10/15 14:06:38;;;;;;;4.93;2.40;;;21.50;39.40;;;;;;6227884;28;20049;-73
2021/10/15 14:09:40;;;;;;;4.40;2.10;;;21.50;39.50;;;;;;6222022;28;20099;-74
2021/10/15 14:12:41;;;;;;;7.30;2.38;;;21.50;39.60;;;;;;6224960;28;20038;-73
2021/10/15 14:15:42;;;;;;;7.85;2.13;;;21.50;39.80;;;;;;6238797;28;20386;-74
2021/10/15 14:18:45;;;;;;;9.60;2.28;;;21.50;40.10;;;;;;6222305;28;20049;-73
2021/10/15 14:21:46;;;;;;;3.65;2.03;;;21.40;40.30;;;;;;6222775;28;20037;-74
2021/10/15 14:24:47;;;;;;;4.40;2.00;;;21.50;40.30;;;;;;6206284;28;20034;-74
2021/10/15 14:27:48;;;;;;;5.13;2.00;;;21.50;40.20;;;;;;6221847;28;20034;-75
2021/10/15 14:30:50;;;;;;;1.88;1.50;;;21.50;39.80;;;;;;6222788;28;20049;-75
2021/10/15 14:33:51;;;;;;;6.20;2.30;;;21.40;39.70;;;;;;6223493;28;20045;-75
2021/10/15 14:36:53;;;;;;;3.90;1.90;;;21.40;39.50;;;;;;6222242;28;20049;-74
2021/10/15 14:39:54;;;;;;;5.05;1.73;;;21.40;39.30;;;;;;6201271;28;20082;-74
2021/10/15 14:42:55;;;;;;;6.03;1.85;;;21.40;39.30;;;;;;6244886;28;20052;-74
2021/10/15 14:45:56;;;;;;;3.47;2.10;;;21.40;39.00;;;;;;6236001;28;20072;-74
2021/10/15 14:48:57;;;;;;;3.42;1.70;;;21.30;39.00;;;;;;6221210;28;20034;-73
2021/10/15 14:51:58;;;;;;;12.75;3.30;;;21.40;39.00;;;;;;6237421;28;20030;-75
2021/10/15 14:54:59;;;;;;;4.40;2.05;;;21.40;38.90;;;;;;6221616;28;20192;-75
2021/10/15 14:58:00;;;;;;;3.90;1.52;;;21.40;39.00;;;;;;6222559;28;20413;-73
2021/10/15 15:01:04;;;;;;;14.45;3.60;;;21.40;39.00;;;;;;6222189;28;20046;-74
2021/10/15 15:04:05;;;;;;;10.15;2.05;;;21.40;39.10;;;;;;6220927;28;20045;-72
2021/10/15 15:07:06;;;;;;;4.65;2.05;;;21.40;39.10;;;;;;6216716;28;20061;-72
2021/10/15 15:10:25;;;;;;;9.07;2.03;;;21.30;39.10;;;;;;6209614;28;20065;-74
2021/10/15 15:13:26;;;;;;;5.32;1.90;;;21.30;39.20;;;;;;6227339;28;20367;-73
2021/10/15 15:16:27;;;;;;;6.82;2.97;;;21.30;39.40;;;;;;6221456;28;20470;-72
2021/10/15 15:19:29;;;;;;;6.25;2.38;;;21.20;39.40;;;;;;6219691;28;20034;-71
2021/10/15 15:22:30;;;;;;;10.68;2.80;;;21.20;39.60;;;;;;6220508;28;20116;-73
2021/10/15 15:25:31;;;;;;;6.75;2.83;;;21.20;39.60;;;;;;6219820;28;20034;-72
2021/10/15 15:28:33;;;;;;;3.67;2.08;;;21.20;39.70;;;;;;6220492;28;20087;-73
2021/10/15 15:31:33;;;;;;;9.30;2.30;;;21.10;39.80;;;;;;6221972;28;20390;-73
2021/10/15 15:34:34;;;;;;;9.07;3.03;;;21.10;39.90;;;;;;6232495;28;20046;-73
2021/10/15 15:37:36;;;;;;;2.92;1.50;;;21.10;40.10;;;;;;6221229;28;20060;-72
2021/10/15 15:40:37;;;;;;;3.97;2.17;;;21.10;40.10;;;;;;6220393;28;20363;-72
2021/10/15 15:43:41;;;;;;;7.00;2.53;;;21.00;40.10;;;;;;6224571;28;20042;-71
2021/10/15 15:46:43;;;;;;;7.10;2.22;;;21.00;40.20;;;;;;6219784;28;20058;-72
2021/10/15 15:49:44;;;;;;;7.18;1.90;;;21.00;40.30;;;;;;6203340;28;20511;-72
2021/10/15 15:52:48;;;;;;;6.93;1.90;;;21.00;40.40;;;;;;6203562;28;20045;-72
2021/10/15 15:55:53;;;;;;;6.95;2.70;;;20.90;40.50;;;;;;6222002;28;20455;-73
2021/10/15 15:58:54;;;;;;;6.30;3.08;;;20.90;40.60;;;;;;6214898;28;20434;-73
2021/10/15 16:01:55;;;;;;;5.75;2.28;;;20.90;40.70;;;;;;6204204;28;20034;-72
2021/10/15 16:04:55;;;;;;;3.88;1.95;;;20.80;40.80;;;;;;6219705;28;20051;-74
2021/10/15 16:07:56;;;;;;;6.07;2.58;;;20.80;40.90;;;;;;6220665;28;20052;-72
2021/10/15 16:10:57;;;;;;;4.35;2.13;;;20.80;41.00;;;;;;6221127;28;20063;-74
2021/10/15 16:13:58;;;;;;;9.80;2.72;;;20.70;41.10;;;;;;6220647;28;20056;-73
2021/10/15 16:16:59;;;;;;;7.15;2.65;;;20.70;41.20;;;;;;6221200;28;20048;-72
2021/10/15 16:20:00;;;;;;;10.55;2.55;;;20.60;41.40;;;;;;6220693;28;20088;-73